Time;durP1;ratioP1;P1;durP2;ratioP2;P2;SDS_P1;SDS_P2;PMS_P1;PMS_P2;Temp;Humidity;BMP_temperature;BMP_pressure;BME280_temperature;BME280_humidity;BME280_pressure;Samples;Min_cycle;Max_cycle;Signal;HPM_P1;HPM_P2
2022/07/05 00:00:45;;;;;;;9.13;3.05;;;;;;;;;;4974135;28;20119;-66
2022/07/05 00:03:12;;;;;;;8.70;3.33;;;;;;;;;;4988771;28;20097;-66
2022/07/05 00:05:38;;;;;;;10.60;3.03;;;;;;;;;;4974271;28;20049;-67
2022/07/05 00:08:05;;;;;;;9.63;3.50;;;;;;;;;;4973774;28;20058;-68
2022/07/05 00:10:37;;;;;;;9.23;3.25;;;;;;;;;;4973971;28;20105;-65
2022/07/05 00:13:04;;;;;;;6.60;2.90;;;;;;;;;;4973321;28;20481;-67
2022/07/05 00:15:31;;;;;;;8.40;3.50;;;;;;;;;;4973948;28;20106;-66
2022/07/05 00:17:57;;;;;;;8.48;3.40;;;;;;;;;;4973114;28;20068;-66
2022/07/05 00:20:23;;;;;;;14.32;3.60;;;;;;;;;;4973803;28;20035;-70
2022/07/05 00:22:49;;;;;;;5.80;2.65;;;;;;;;;;4973560;28;20457;-68
2022/07/05 00:25:14;;;;;;;9.50;3.30;;;;;;;;;;4974248;28;20015;-70
2022/07/05 00:27:41;;;;;;;5.32;2.90;;;;;;;;;;4972938;28;20035;-67
2022/07/05 00:30:08;;;;;;;8.82;3.08;;;;;;;;;;4973616;28;20026;-68
2022/07/05 00:32:37;;;;;;;7.30;2.95;;;;;;;;;;4971755;28;20556;-68
2022/07/05 00:35:04;;;;;;;7.05;3.35;;;;;;;;;;4967801;28;20045;-69
2022/07/05 00:37:30;;;;;;;10.15;3.67;;;;;;;;;;4952067;29;20067;-67
2022/07/05 00:39:56;;;;;;;10.10;3.60;;;;;;;;;;4952452;29;20047;-69
2022/07/05 00:42:22;;;;;;;6.63;3.15;;;;;;;;;;4953629;28;20035;-68
2022/07/05 00:44:47;;;;;;;7.93;3.55;;;;;;;;;;4953832;29;20031;-72
2022/07/05 00:47:14;;;;;;;10.20;3.40;;;;;;;;;;4953619;29;20046;-68
2022/07/05 00:49:41;;;;;;;7.53;3.08;;;;;;;;;;4953805;28;20110;-68
2022/07/05 00:52:08;;;;;;;6.95;2.80;;;;;;;;;;4954159;29;20109;-72
2022/07/05 00:54:36;;;;;;;5.18;2.20;;;;;;;;;;4952308;29;20027;-71
2022/07/05 00:57:03;;;;;;;7.70;2.20;;;;;;;;;;4953162;29;20051;-69
2022/07/05 00:59:30;;;;;;;7.60;2.63;;;;;;;;;;4953518;29;20035;-67
2022/07/05 01:01:56;;;;;;;5.75;2.25;;;;;;;;;;4952556;29;20037;-68
2022/07/05 01:04:22;;;;;;;7.70;2.20;;;;;;;;;;4952613;29;20034;-68
2022/07/05 01:06:50;;;;;;;6.15;2.42;;;;;;;;;;4953829;29;20028;-69
2022/07/05 01:09:19;;;;;;;4.22;1.67;;;;;;;;;;4952443;29;20036;-69
2022/07/05 01:11:47;;;;;;;4.07;1.73;;;;;;;;;;4965629;28;20501;-68
2022/07/05 01:14:21;;;;;;;5.78;1.70;;;;;;;;;;4971607;28;20065;-66
2022/07/05 01:16:49;;;;;;;3.95;1.67;;;;;;;;;;4951975;29;20035;-67
2022/07/05 01:19:16;;;;;;;8.85;1.92;;;;;;;;;;4953593;29;20024;-66
2022/07/05 01:21:44;;;;;;;5.63;1.95;;;;;;;;;;4952868;28;20039;-68
2022/07/05 01:24:13;;;;;;;7.47;1.67;;;;;;;;;;4953384;28;20035;-66
2022/07/05 01:26:40;;;;;;;4.55;1.60;;;;;;;;;;4952289;28;20151;-66
2022/07/05 01:29:08;;;;;;;6.47;1.80;;;;;;;;;;4971867;28;20019;-65
2022/07/05 01:31:37;;;;;;;3.60;1.95;;;;;;;;;;4971345;28;20478;-66
2022/07/05 01:34:04;;;;;;;4.38;2.00;;;;;;;;;;4972707;28;20034;-68
2022/07/05 01:36:30;;;;;;;3.40;1.90;;;;;;;;;;4972151;28;20122;-65
2022/07/05 01:38:56;;;;;;;7.65;1.85;;;;;;;;;;4972671;28;20166;-65
2022/07/05 01:41:22;;;;;;;11.55;6.35;;;;;;;;;;4972266;28;20035;-66
2022/07/05 01:43:48;;;;;;;17.73;9.32;;;;;;;;;;4972407;28;20026;-66
2022/07/05 01:46:18;;;;;;;14.82;6.68;;;;;;;;;;4973168;28;20117;-72
2022/07/05 01:48:44;;;;;;;10.80;5.93;;;;;;;;;;4974976;28;20441;-67
2022/07/05 01:51:21;;;;;;;8.63;4.53;;;;;;;;;;4975091;28;20386;-71
2022/07/05 01:53:51;;;;;;;9.10;3.72;;;;;;;;;;4976365;28;20516;-72
2022/07/05 01:56:18;;;;;;;4.47;2.95;;;;;;;;;;4974932;28;20078;-70
2022/07/05 01:58:45;;;;;;;5.90;2.17;;;;;;;;;;4974293;28;20042;-68
2022/07/05 02:01:12;;;;;;;4.57;2.00;;;;;;;;;;4961505;28;20042;-68
2022/07/05 02:03:39;;;;;;;7.75;3.90;;;;;;;;;;4972985;28;20370;-67
2022/07/05 02:06:08;;;;;;;7.28;3.70;;;;;;;;;;4975024;28;20130;-69
2022/07/05 02:08:34;;;;;;;8.95;3.03;;;;;;;;;;4974331;28;20385;-71
2022/07/05 02:11:00;;;;;;;6.68;2.63;;;;;;;;;;4980291;28;20022;-69
2022/07/05 02:13:28;;;;;;;5.85;2.30;;;;;;;;;;4975282;28;20058;-72
2022/07/05 02:15:54;;;;;;;5.32;2.28;;;;;;;;;;4974143;28;20031;-67
2022/07/05 02:18:20;;;;;;;3.88;2.15;;;;;;;;;;4957487;28;20035;-69
2022/07/05 02:20:46;;;;;;;9.15;3.03;;;;;;;;;;4973358;28;20113;-67
2022/07/05 02:23:12;;;;;;;15.63;4.43;;;;;;;;;;4974927;28;20470;-70
2022/07/05 02:25:39;;;;;;;16.92;5.20;;;;;;;;;;4975575;28;20383;-72
2022/07/05 02:28:12;;;;;;;13.00;5.10;;;;;;;;;;4967402;28;20045;-70
2022/07/05 02:30:38;;;;;;;14.35;4.10;;;;;;;;;;4954764;29;20282;-71
2022/07/05 02:33:05;;;;;;;8.88;3.38;;;;;;;;;;4960745;28;20130;-68
2022/07/05 02:35:31;;;;;;;14.23;3.70;;;;;;;;;;4973942;28;20039;-70
2022/07/05 02:37:57;;;;;;;10.55;3.25;;;;;;;;;;4974831;28;20033;-70
2022/07/05 02:40:23;;;;;;;11.98;3.85;;;;;;;;;;4973839;28;20433;-67
2022/07/05 02:42:50;;;;;;;17.17;3.35;;;;;;;;;;4973012;28;20382;-67
2022/07/05 02:45:18;;;;;;;10.07;3.40;;;;;;;;;;4970349;28;20450;-70
2022/07/05 02:47:50;;;;;;;7.97;3.13;;;;;;;;;;4953821;28;20031;-67
2022/07/05 02:50:16;;;;;;;9.40;3.17;;;;;;;;;;4954466;28;20035;-67
2022/07/05 02:52:47;;;;;;;6.32;2.40;;;;;;;;;;4953949;29;20590;-67
2022/07/05 02:55:14;;;;;;;5.82;2.50;;;;;;;;;;4953877;28;20043;-66
2022/07/05 02:57:40;;;;;;;4.25;2.13;;;;;;;;;;4959406;28;20050;-68
2022/07/05 03:00:10;;;;;;;6.43;2.13;;;;;;;;;;4987568;28;20045;-68
2022/07/05 03:02:42;;;;;;;4.55;2.00;;;;;;;;;;4972108;28;20061;-69
2022/07/05 03:05:09;;;;;;;8.68;2.25;;;;;;;;;;4973433;28;20059;-68
2022/07/05 03:07:37;;;;;;;6.22;2.28;;;;;;;;;;4989385;28;20031;-68
2022/07/05 03:10:05;;;;;;;8.50;2.60;;;;;;;;;;4972838;28;20042;-67
2022/07/05 03:12:31;;;;;;;8.10;3.30;;;;;;;;;;4972778;28;20029;-68
2022/07/05 03:14:57;;;;;;;14.18;3.80;;;;;;;;;;4960356;28;20056;-71
2022/07/05 03:17:23;;;;;;;10.20;2.95;;;;;;;;;;4934189;29;20471;-67
2022/07/05 03:19:50;;;;;;;8.48;3.40;;;;;;;;;;4954631;28;20047;-68
2022/07/05 03:22:19;;;;;;;7.97;3.17;;;;;;;;;;4972851;28;20035;-66
2022/07/05 03:24:45;;;;;;;17.60;3.53;;;;;;;;;;4972515;28;20037;-70
2022/07/05 03:27:11;;;;;;;9.35;2.92;;;;;;;;;;4974257;28;20027;-73
2022/07/05 03:29:39;;;;;;;17.08;4.07;;;;;;;;;;4972305;28;20062;-72
2022/07/05 03:32:05;;;;;;;17.17;4.43;;;;;;;;;;4972769;28;20035;-69
2022/07/05 03:34:31;;;;;;;12.23;3.40;;;;;;;;;;4971833;28;20577;-73
2022/07/05 03:36:59;;;;;;;10.15;3.90;;;;;;;;;;4988715;28;20125;-71
2022/07/05 03:39:25;;;;;;;16.08;3.70;;;;;;;;;;4971770;28;20097;-70
2022/07/05 03:41:51;;;;;;;17.77;4.13;;;;;;;;;;4972579;28;20047;-71
2022/07/05 03:44:21;;;;;;;21.05;4.50;;;;;;;;;;4972033;28;20445;-70
2022/07/05 03:46:47;;;;;;;9.27;3.20;;;;;;;;;;4972858;28;20045;-72
2022/07/05 03:49:13;;;;;;;13.90;2.85;;;;;;;;;;4971902;28;20039;-70
2022/07/05 03:51:40;;;;;;;6.07;2.80;;;;;;;;;;4971947;28;20027;-70
2022/07/05 03:54:06;;;;;;;10.98;2.80;;;;;;;;;;4971535;28;20047;-71
2022/07/05 03:56:32;;;;;;;17.33;3.75;;;;;;;;;;4971596;28;20103;-67
2022/07/05 03:59:03;;;;;;;7.15;3.25;;;;;;;;;;4971503;28;20046;-71
2022/07/05 04:01:30;;;;;;;16.52;3.78;;;;;;;;;;4971932;28;20031;-71
2022/07/05 04:03:56;;;;;;;9.77;3.53;;;;;;;;;;4971208;28;20483;-69
2022/07/05 04:06:24;;;;;;;7.55;3.30;;;;;;;;;;4972113;28;20452;-72
2022/07/05 04:08:52;;;;;;;15.10;4.15;;;;;;;;;;4971089;28;20070;-72
2022/07/05 04:11:18;;;;;;;8.98;3.35;;;;;;;;;;4971884;28;20043;-69
2022/07/05 04:13:48;;;;;;;7.32;3.38;;;;;;;;;;4958665;28;20035;-69
2022/07/05 04:16:14;;;;;;;6.95;3.00;;;;;;;;;;4952460;29;20039;-72
2022/07/05 04:18:40;;;;;;;6.07;2.63;;;;;;;;;;4952210;28;20117;-67
2022/07/05 04:21:06;;;;;;;7.50;2.70;;;;;;;;;;4952528;29;20491;-68
2022/07/05 04:23:32;;;;;;;9.32;3.05;;;;;;;;;;4952773;29;20470;-67
2022/07/05 04:26:00;;;;;;;6.18;2.90;;;;;;;;;;4953887;29;20042;-67
2022/07/05 04:28:35;;;;;;;13.70;3.33;;;;;;;;;;4952156;29;20173;-67
2022/07/05 04:31:04;;;;;;;12.52;3.13;;;;;;;;;;4952476;29;20042;-68
2022/07/05 04:33:34;;;;;;;11.98;3.65;;;;;;;;;;4952410;29;20621;-68
2022/07/05 04:36:00;;;;;;;10.57;3.53;;;;;;;;;;4952532;29;20055;-67
2022/07/05 04:38:26;;;;;;;9.50;3.45;;;;;;;;;;4952585;28;20034;-69
2022/07/05 04:40:54;;;;;;;14.02;3.10;;;;;;;;;;4952559;29;20046;-68
2022/07/05 04:43:19;;;;;;;8.75;3.40;;;;;;;;;;4952335;28;20023;-67
2022/07/05 04:45:46;;;;;;;12.10;3.65;;;;;;;;;;4952478;29;20505;-67
2022/07/05 04:48:11;;;;;;;17.17;4.00;;;;;;;;;;4952656;28;20090;-73
2022/07/05 04:50:39;;;;;;;17.55;3.75;;;;;;;;;;4952926;29;20082;-67
2022/07/05 04:53:06;;;;;;;13.95;3.30;;;;;;;;;;4952499;29;20130;-66
2022/07/05 04:55:31;;;;;;;7.97;2.97;;;;;;;;;;4953906;29;20118;-66
2022/07/05 04:57:57;;;;;;;13.07;3.05;;;;;;;;;;4953436;29;20518;-69
2022/07/05 05:00:23;;;;;;;11.68;3.10;;;;;;;;;;4953567;29;20518;-67
2022/07/05 05:02:49;;;;;;;6.78;2.60;;;;;;;;;;4972085;28;20023;-67
2022/07/05 05:05:15;;;;;;;8.43;2.70;;;;;;;;;;4973216;28;20064;-68
2022/07/05 05:07:44;;;;;;;5.78;2.78;;;;;;;;;;4973350;28;20130;-69
2022/07/05 05:10:11;;;;;;;8.48;3.42;;;;;;;;;;4973003;28;20027;-69
2022/07/05 05:12:37;;;;;;;5.50;2.58;;;;;;;;;;4973614;28;20041;-71
2022/07/05 05:15:03;;;;;;;7.90;3.00;;;;;;;;;;4973717;28;20114;-71
2022/07/05 05:17:42;;;;;;;5.15;2.83;;;;;;;;;;4973842;28;20026;-73
2022/07/05 05:20:18;;;;;;;11.45;2.85;;;;;;;;;;4973188;28;20406;-74
2022/07/05 05:22:45;;;;;;;10.40;2.75;;;;;;;;;;4973595;28;20035;-70
2022/07/05 05:25:11;;;;;;;9.40;2.80;;;;;;;;;;4973958;28;20027;-69
2022/07/05 05:27:44;;;;;;;9.40;3.20;;;;;;;;;;4973551;28;20409;-70
2022/07/05 05:30:11;;;;;;;8.45;3.50;;;;;;;;;;4973517;28;20039;-69
2022/07/05 05:32:37;;;;;;;6.88;3.35;;;;;;;;;;4973208;28;20030;-69
2022/07/05 05:35:04;;;;;;;4.68;2.80;;;;;;;;;;4965328;28;20031;-69
2022/07/05 05:37:30;;;;;;;9.60;3.05;;;;;;;;;;4965121;28;20110;-70
2022/07/05 05:39:56;;;;;;;7.20;2.90;;;;;;;;;;4973202;28;20037;-68
2022/07/05 05:42:22;;;;;;;7.65;2.65;;;;;;;;;;4973377;28;20107;-72
2022/07/05 05:44:47;;;;;;;5.18;2.55;;;;;;;;;;4971087;28;20054;-72
2022/07/05 05:47:13;;;;;;;12.77;4.15;;;;;;;;;;4973417;28;20054;-68
2022/07/05 05:49:39;;;;;;;6.18;2.80;;;;;;;;;;4972928;28;20026;-66
2022/07/05 05:52:05;;;;;;;11.45;3.42;;;;;;;;;;4966540;28;20023;-67
2022/07/05 05:54:31;;;;;;;9.18;2.83;;;;;;;;;;4972497;28;20039;-69
2022/07/05 05:56:57;;;;;;;8.43;2.95;;;;;;;;;;4973139;28;20051;-67
2022/07/05 05:59:23;;;;;;;7.82;2.63;;;;;;;;;;4973160;28;20042;-67
2022/07/05 06:01:48;;;;;;;10.57;2.35;;;;;;;;;;4972963;28;20029;-67
2022/07/05 06:04:14;;;;;;;5.30;1.90;;;;;;;;;;4973429;28;20045;-67
2022/07/05 06:06:40;;;;;;;9.38;2.60;;;;;;;;;;4973305;28;20027;-68
2022/07/05 06:09:06;;;;;;;8.38;2.30;;;;;;;;;;4973162;28;20089;-66
2022/07/05 06:11:31;;;;;;;10.52;2.33;;;;;;;;;;4973429;28;20031;-68
2022/07/05 06:13:57;;;;;;;6.30;2.00;;;;;;;;;;4973300;28;20045;-67
2022/07/05 06:16:23;;;;;;;7.68;2.22;;;;;;;;;;4973208;28;20023;-67
2022/07/05 06:18:49;;;;;;;4.00;1.90;;;;;;;;;;4973008;28;20468;-67
2022/07/05 06:21:14;;;;;;;10.50;2.10;;;;;;;;;;4973091;28;20022;-67
2022/07/05 06:23:40;;;;;;;3.47;1.60;;;;;;;;;;4973144;28;20034;-67
2022/07/05 06:26:06;;;;;;;3.28;1.88;;;;;;;;;;4972469;28;20034;-69
2022/07/05 06:28:33;;;;;;;5.43;1.95;;;;;;;;;;4972753;28;20043;-67
2022/07/05 06:30:58;;;;;;;5.53;2.20;;;;;;;;;;4964842;28;20026;-67
2022/07/05 06:33:24;;;;;;;5.22;1.80;;;;;;;;;;4972149;28;20079;-68
2022/07/05 06:35:50;;;;;;;5.15;2.10;;;;;;;;;;4976638;28;20077;-68
2022/07/05 06:38:16;;;;;;;6.25;2.20;;;;;;;;;;4976238;28;20041;-67
2022/07/05 06:40:42;;;;;;;9.25;2.05;;;;;;;;;;4976416;28;20027;-68
2022/07/05 06:43:10;;;;;;;3.35;2.03;;;;;;;;;;4975968;28;20477;-68
2022/07/05 06:45:55;;;;;;;3.15;1.90;;;;;;;;;;4975289;28;20026;-69
2022/07/05 06:48:22;;;;;;;9.63;2.83;;;;;;;;;;4976510;28;20045;-71
2022/07/05 06:50:47;;;;;;;10.48;2.60;;;;;;;;;;4976364;28;20148;-69
2022/07/05 06:53:13;;;;;;;14.32;3.47;;;;;;;;;;4976499;28;20027;-69
2022/07/05 06:55:44;;;;;;;9.95;2.45;;;;;;;;;;4976054;28;20035;-69
2022/07/05 06:58:10;;;;;;;9.80;2.05;;;;;;;;;;4975488;28;20038;-68
2022/07/05 07:00:36;;;;;;;20.67;2.60;;;;;;;;;;4969341;28;20031;-67
2022/07/05 07:03:02;;;;;;;13.90;2.90;;;;;;;;;;4976799;28;20055;-69
2022/07/05 07:05:28;;;;;;;5.88;2.20;;;;;;;;;;4976583;28;20023;-70
2022/07/05 07:10:39;;;;;;;14.45;2.25;;;;;;;;;;4973829;28;20041;-69
2022/07/05 07:13:05;;;;;;;8.05;1.80;;;;;;;;;;4961666;28;20023;-72
2022/07/05 07:15:31;;;;;;;6.43;1.73;;;;;;;;;;4955822;29;20114;-70
2022/07/05 07:17:57;;;;;;;8.55;2.50;;;;;;;;;;4955828;28;20027;-69
2022/07/05 07:20:23;;;;;;;3.75;2.10;;;;;;;;;;4963838;28;20061;-69
2022/07/05 07:22:49;;;;;;;4.65;2.35;;;;;;;;;;4958562;28;20106;-67
2022/07/05 07:25:17;;;;;;;10.27;2.20;;;;;;;;;;4955855;28;20337;-67
2022/07/05 07:27:49;;;;;;;4.85;1.67;;;;;;;;;;4965800;28;20042;-68
2022/07/05 07:30:17;;;;;;;5.72;1.90;;;;;;;;;;4965742;28;20027;-68
2022/07/05 07:32:44;;;;;;;6.15;2.30;;;;;;;;;;4955901;28;20118;-67
2022/07/05 07:35:10;;;;;;;6.25;1.77;;;;;;;;;;4970463;28;20031;-68
2022/07/05 07:37:36;;;;;;;4.55;1.88;;;;;;;;;;4965501;28;20031;-68
2022/07/05 07:40:06;;;;;;;4.55;1.75;;;;;;;;;;4955626;28;20094;-68
2022/07/05 07:42:32;;;;;;;9.98;2.17;;;;;;;;;;4955644;28;20023;-69
2022/07/05 07:44:58;;;;;;;4.80;1.98;;;;;;;;;;4965891;28;20418;-71
2022/07/05 07:47:24;;;;;;;5.00;1.80;;;;;;;;;;4955486;29;20130;-70
2022/07/05 07:49:50;;;;;;;7.25;2.42;;;;;;;;;;4960361;28;20038;-68
2022/07/05 07:52:16;;;;;;;4.57;1.90;;;;;;;;;;4974333;28;20074;-68
2022/07/05 07:54:42;;;;;;;5.13;1.65;;;;;;;;;;4970799;28;20731;-68
2022/07/05 07:57:08;;;;;;;3.60;1.60;;;;;;;;;;4972095;28;20038;-69
2022/07/05 07:59:34;;;;;;;5.43;1.95;;;;;;;;;;4974735;28;20031;-70
2022/07/05 08:02:00;;;;;;;7.97;2.03;;;;;;;;;;4973710;28;20109;-67
2022/07/05 08:04:27;;;;;;;4.05;1.92;;;;;;;;;;4973190;28;20035;-67
2022/07/05 08:06:53;;;;;;;5.78;1.80;;;;;;;;;;4972215;28;20034;-68
2022/07/05 08:09:19;;;;;;;12.18;2.20;;;;;;;;;;4972296;28;20031;-68
2022/07/05 08:11:46;;;;;;;6.22;2.10;;;;;;;;;;4961853;28;20482;-68
2022/07/05 08:14:17;;;;;;;4.75;1.88;;;;;;;;;;4974142;28;20074;-68
2022/07/05 08:16:43;;;;;;;4.70;1.90;;;;;;;;;;4964614;28;20051;-71
2022/07/05 08:21:53;;;;;;;7.93;2.35;;;;;;;;;;4953669;28;20050;-72
2022/07/05 08:24:19;;;;;;;4.25;1.67;;;;;;;;;;4953517;28;20023;-69
2022/07/05 08:26:45;;;;;;;6.30;1.77;;;;;;;;;;4973336;28;20027;-72
2022/07/05 08:29:12;;;;;;;9.82;3.05;;;;;;;;;;4973061;28;20410;-67
2022/07/05 08:31:41;;;;;;;9.55;2.13;;;;;;;;;;4972654;28;20055;-72
2022/07/05 08:34:07;;;;;;;5.97;1.67;;;;;;;;;;4973709;28;20034;-70
2022/07/05 08:36:32;;;;;;;4.95;2.17;;;;;;;;;;4974140;28;20149;-70
2022/07/05 08:38:58;;;;;;;8.35;2.20;;;;;;;;;;4972679;28;20039;-70
2022/07/05 08:41:24;;;;;;;6.03;1.88;;;;;;;;;;4960906;28;20089;-72
2022/07/05 08:43:51;;;;;;;7.10;2.20;;;;;;;;;;4966660;28;20106;-69
2022/07/05 08:46:19;;;;;;;3.78;1.80;;;;;;;;;;4972414;28;20026;-71
2022/07/05 08:48:48;;;;;;;8.50;2.40;;;;;;;;;;4973621;28;20393;-71
2022/07/05 08:51:21;;;;;;;3.95;2.10;;;;;;;;;;4973973;28;20093;-70
2022/07/05 08:53:48;;;;;;;8.23;2.40;;;;;;;;;;4964425;28;20037;-72
2022/07/05 08:56:14;;;;;;;7.57;2.40;;;;;;;;;;4953663;28;20047;-70
2022/07/05 08:58:41;;;;;;;7.03;1.95;;;;;;;;;;4954611;28;20031;-71
2022/07/05 09:01:09;;;;;;;4.93;2.08;;;;;;;;;;4954341;28;20031;-70
2022/07/05 09:03:42;;;;;;;7.65;1.92;;;;;;;;;;4954816;28;20122;-72
2022/07/05 09:06:13;;;;;;;7.68;2.75;;;;;;;;;;4959890;28;20078;-71
2022/07/05 09:08:40;;;;;;;4.18;1.77;;;;;;;;;;4973476;28;20062;-71
2022/07/05 09:11:12;;;;;;;5.47;2.20;;;;;;;;;;4973735;28;20022;-72
2022/07/05 09:13:40;;;;;;;8.63;2.20;;;;;;;;;;4973477;28;20393;-71
2022/07/05 09:16:07;;;;;;;7.07;2.35;;;;;;;;;;4973316;28;20035;-68
2022/07/05 09:18:45;;;;;;;3.38;1.70;;;;;;;;;;4972755;28;20486;-70
2022/07/05 09:21:29;;;;;;;6.80;2.10;;;;;;;;;;4973545;28;20043;-71
2022/07/05 09:24:05;;;;;;;7.00;1.95;;;;;;;;;;4973168;28;20041;-71
2022/07/05 09:26:36;;;;;;;6.13;1.95;;;;;;;;;;4973152;28;20089;-72
2022/07/05 09:29:14;;;;;;;5.68;2.20;;;;;;;;;;4972811;28;20038;-70
2022/07/05 09:31:42;;;;;;;6.00;2.53;;;;;;;;;;4968089;28;20038;-71
2022/07/05 09:34:11;;;;;;;7.65;2.28;;;;;;;;;;4973278;28;20033;-67
2022/07/05 09:37:03;;;;;;;4.40;2.20;;;;;;;;;;4972671;28;20042;-67
2022/07/05 09:39:29;;;;;;;3.97;2.00;;;;;;;;;;4972476;28;20045;-70
2022/07/05 09:42:20;;;;;;;3.33;2.20;;;;;;;;;;4972978;28;20109;-70
2022/07/05 09:44:48;;;;;;;11.05;4.10;;;;;;;;;;4962081;28;20047;-69
2022/07/05 09:47:17;;;;;;;11.02;5.80;;;;;;;;;;4953767;28;20114;-71
2022/07/05 09:49:48;;;;;;;6.88;3.15;;;;;;;;;;4968717;28;20037;-71
2022/07/05 09:52:37;;;;;;;7.00;2.40;;;;;;;;;;4973112;28;20045;-73
2022/07/05 09:55:07;;;;;;;4.65;2.30;;;;;;;;;;4973089;28;20058;-70
2022/07/05 09:57:34;;;;;;;4.45;2.50;;;;;;;;;;4961384;28;20090;-71
2022/07/05 10:00:05;;;;;;;6.07;2.42;;;;;;;;;;4952406;29;20719;-72
2022/07/05 10:02:42;;;;;;;6.20;2.15;;;;;;;;;;4953407;28;20403;-73
2022/07/05 10:05:12;;;;;;;9.70;3.25;;;;;;;;;;4953806;29;20047;-71
2022/07/05 10:07:41;;;;;;;5.03;2.70;;;;;;;;;;4965696;28;20496;-70
2022/07/05 10:10:08;;;;;;;3.85;2.00;;;;;;;;;;4966256;28;20027;-70
2022/07/05 10:12:36;;;;;;;14.23;2.20;;;;;;;;;;4957286;28;20448;-69
2022/07/05 10:15:03;;;;;;;5.15;2.20;;;;;;;;;;4957460;28;20091;-70
2022/07/05 10:17:35;;;;;;;4.43;2.30;;;;;;;;;;4957369;28;20043;-71
2022/07/05 10:20:05;;;;;;;3.05;2.10;;;;;;;;;;4957432;28;20043;-72
2022/07/05 10:22:30;;;;;;;5.10;2.80;;;;;;;;;;4956461;28;20035;-69
2022/07/05 10:25:00;;;;;;;10.10;2.78;;;;;;;;;;4957025;28;20366;-68
2022/07/05 10:27:27;;;;;;;5.78;2.40;;;;;;;;;;4957243;28;20102;-67
2022/07/05 10:29:56;;;;;;;3.58;2.47;;;;;;;;;;4957058;28;20413;-67
2022/07/05 10:32:24;;;;;;;6.18;2.63;;;;;;;;;;4956984;29;20110;-68
2022/07/05 10:34:51;;;;;;;15.13;8.00;;;;;;;;;;4960979;28;20362;-68
2022/07/05 10:37:18;;;;;;;8.20;3.47;;;;;;;;;;4975155;28;20410;-68
2022/07/05 10:39:45;;;;;;;12.25;3.38;;;;;;;;;;4975714;28;20019;-68
2022/07/05 10:42:11;;;;;;;5.47;2.40;;;;;;;;;;4976045;28;20027;-69
2022/07/05 10:44:38;;;;;;;4.32;2.20;;;;;;;;;;4975863;28;20113;-71
2022/07/05 10:47:11;;;;;;;4.60;2.30;;;;;;;;;;4975281;28;20031;-69
2022/07/05 10:49:38;;;;;;;3.22;1.98;;;;;;;;;;4975797;28;20517;-69
2022/07/05 10:52:05;;;;;;;3.65;2.20;;;;;;;;;;4975203;28;20029;-70
2022/07/05 10:54:34;;;;;;;3.92;2.20;;;;;;;;;;4975293;28;20503;-69
2022/07/05 10:57:23;;;;;;;7.13;3.33;;;;;;;;;;4975055;28;20508;-67
2022/07/05 11:00:08;;;;;;;7.15;2.08;;;;;;;;;;4973459;28;20061;-67
2022/07/05 11:02:34;;;;;;;8.48;2.50;;;;;;;;;;4956204;29;20445;-67
2022/07/05 11:05:01;;;;;;;7.60;2.92;;;;;;;;;;4955993;28;20035;-67
2022/07/05 11:07:57;;;;;;;6.05;2.75;;;;;;;;;;4963131;28;20116;-67
2022/07/05 11:10:23;;;;;;;4.80;2.70;;;;;;;;;;4975304;28;20042;-68
2022/07/05 11:12:49;;;;;;;9.63;2.80;;;;;;;;;;4970924;28;20074;-68
2022/07/05 11:15:16;;;;;;;6.60;3.30;;;;;;;;;;4955718;28;20192;-68
2022/07/05 11:17:43;;;;;;;6.95;2.30;;;;;;;;;;4955294;28;20433;-67
2022/07/05 11:20:27;;;;;;;5.90;2.47;;;;;;;;;;4955780;28;20082;-68
2022/07/05 11:23:08;;;;;;;7.35;2.80;;;;;;;;;;4955982;28;20085;-69
2022/07/05 11:25:39;;;;;;;4.93;2.47;;;;;;;;;;4959880;28;20082;-67
2022/07/05 11:28:16;;;;;;;3.70;2.50;;;;;;;;;;4968697;28;20066;-67
2022/07/05 11:30:50;;;;;;;5.10;2.00;;;;;;;;;;4968126;28;20786;-69
2022/07/05 11:33:33;;;;;;;3.88;2.00;;;;;;;;;;4956481;28;20426;-67
2022/07/05 11:35:59;;;;;;;6.35;2.30;;;;;;;;;;4966477;28;20084;-67
2022/07/05 11:38:26;;;;;;;5.53;2.33;;;;;;;;;;4958013;28;20027;-71
2022/07/05 11:40:53;;;;;;;4.35;2.20;;;;;;;;;;4956050;28;20099;-69
2022/07/05 11:43:29;;;;;;;6.18;2.20;;;;;;;;;;4966797;28;20448;-70
2022/07/05 11:45:59;;;;;;;2.85;1.85;;;;;;;;;;4975378;28;20062;-70
2022/07/05 11:48:29;;;;;;;5.68;2.17;;;;;;;;;;4993190;28;20035;-67
2022/07/05 11:50:56;;;;;;;6.53;2.20;;;;;;;;;;4985094;28;20509;-69
2022/07/05 11:53:26;;;;;;;2.72;1.80;;;;;;;;;;4953462;28;20086;-69
2022/07/05 11:55:59;;;;;;;5.25;1.80;;;;;;;;;;4954599;28;20105;-66
2022/07/05 11:58:32;;;;;;;8.10;2.17;;;;;;;;;;4959359;28;20126;-66
2022/07/05 12:00:59;;;;;;;2.45;1.70;;;;;;;;;;4954073;28;20470;-67
2022/07/05 12:03:25;;;;;;;4.35;2.05;;;;;;;;;;4955400;28;20050;-68
2022/07/05 12:05:52;;;;;;;6.35;2.15;;;;;;;;;;4954408;28;20458;-66
2022/07/05 12:08:24;;;;;;;4.53;1.90;;;;;;;;;;4953678;29;20035;-69
2022/07/05 12:13:50;;;;;;;3.05;2.00;;;;;;;;;;4954348;28;20035;-68
2022/07/05 12:16:16;;;;;;;3.05;2.10;;;;;;;;;;4953415;28;20039;-68
2022/07/05 12:18:49;;;;;;;2.70;1.90;;;;;;;;;;4956324;28;20023;-68
2022/07/05 12:21:14;;;;;;;;;;;;;;;;;;4971208;28;20450;-67
2022/07/05 12:23:44;;;;;;;7.40;1.92;;;;;;;;;;4972959;28;19913;-67
2022/07/05 12:26:15;;;;;;;3.65;1.90;;;;;;;;;;4973397;28;20027;-68
2022/07/05 12:28:42;;;;;;;5.53;2.15;;;;;;;;;;4970839;28;20474;-68
2022/07/05 12:31:22;;;;;;;4.90;2.10;;;;;;;;;;4952197;28;20039;-67
2022/07/05 12:33:49;;;;;;;4.68;2.15;;;;;;;;;;4953906;28;20050;-68
2022/07/05 12:36:20;;;;;;;3.13;2.10;;;;;;;;;;4954076;28;20442;-68
2022/07/05 12:38:46;;;;;;;4.97;2.03;;;;;;;;;;4953453;28;20474;-66
2022/07/05 12:41:21;;;;;;;5.65;2.17;;;;;;;;;;4954006;28;20110;-67
2022/07/05 12:43:55;;;;;;;7.57;2.30;;;;;;;;;;4954124;28;20123;-67
2022/07/05 12:46:37;;;;;;;3.78;1.90;;;;;;;;;;4953599;29;20035;-66
2022/07/05 12:49:03;;;;;;;;;;;;;;;;;;4954080;28;20043;-69
2022/07/05 12:51:37;;;;;;;4.32;2.15;;;;;;;;;;4953871;28;19918;-67
2022/07/05 12:59:37;;;;;;;3.00;2.03;;;;;;;;;;4969557;28;20037;-70
2022/07/05 13:02:03;;;;;;;6.75;2.35;;;;;;;;;;4972974;28;20027;-73
2022/07/05 13:04:30;;;;;;;5.28;1.98;;;;;;;;;;4973003;28;20039;-73
2022/07/05 13:07:00;;;;;;;3.45;2.08;;;;;;;;;;4972166;28;20038;-73
2022/07/05 13:09:32;;;;;;;3.78;2.20;;;;;;;;;;4972771;28;20045;-72
2022/07/05 13:12:22;;;;;;;3.38;2.20;;;;;;;;;;4972407;28;20081;-71
2022/07/05 13:14:49;;;;;;;4.85;2.42;;;;;;;;;;4972484;28;20042;-74
2022/07/05 13:17:18;;;;;;;3.97;2.10;;;;;;;;;;4972312;28;20034;-74
2022/07/05 13:19:46;;;;;;;3.00;2.00;;;;;;;;;;4968140;28;20108;-75
2022/07/05 13:22:12;;;;;;;4.03;1.90;;;;;;;;;;4952459;28;20114;-76
2022/07/05 13:24:38;;;;;;;3.78;2.05;;;;;;;;;;4952569;28;20035;-73
2022/07/05 13:27:05;;;;;;;2.88;2.03;;;;;;;;;;4952897;28;20034;-72
2022/07/05 13:29:31;;;;;;;10.48;2.30;;;;;;;;;;4952905;28;20079;-71
2022/07/05 13:31:57;;;;;;;3.35;2.13;;;;;;;;;;4953328;28;20027;-71
2022/07/05 13:34:25;;;;;;;3.10;2.05;;;;;;;;;;4968093;28;20442;-71
2022/07/05 13:36:52;;;;;;;3.28;2.00;;;;;;;;;;4959790;28;20023;-74
2022/07/05 13:39:19;;;;;;;4.03;2.10;;;;;;;;;;4963215;28;20047;-73
2022/07/05 13:41:49;;;;;;;3.63;2.20;;;;;;;;;;4961999;28;20082;-73
2022/07/05 13:44:15;;;;;;;5.15;2.20;;;;;;;;;;4960753;28;20483;-69
2022/07/05 13:46:41;;;;;;;3.15;2.00;;;;;;;;;;4963365;28;20050;-69
2022/07/05 13:49:07;;;;;;;2.90;2.08;;;;;;;;;;4970724;28;20137;-70
2022/07/05 13:51:33;;;;;;;3.55;2.20;;;;;;;;;;4971116;28;20023;-69
2022/07/05 13:53:59;;;;;;;6.68;2.00;;;;;;;;;;4966705;28;20031;-70
2022/07/05 13:56:26;;;;;;;3.75;1.88;;;;;;;;;;4973103;28;20457;-70
2022/07/05 13:58:55;;;;;;;2.90;2.17;;;;;;;;;;4971310;28;20478;-73
2022/07/05 14:01:26;;;;;;;4.55;2.05;;;;;;;;;;4973224;28;20039;-71
2022/07/05 14:04:02;;;;;;;7.53;2.10;;;;;;;;;;4970379;28;20386;-71
2022/07/05 14:06:30;;;;;;;2.80;1.95;;;;;;;;;;4970566;28;20035;-70
2022/07/05 14:08:56;;;;;;;5.38;2.25;;;;;;;;;;4965797;28;20081;-72
2022/07/05 14:11:26;;;;;;;3.05;2.05;;;;;;;;;;4954910;28;20035;-72
2022/07/05 14:13:53;;;;;;;3.42;2.17;;;;;;;;;;4963620;28;20038;-70
2022/07/05 14:16:19;;;;;;;3.22;2.08;;;;;;;;;;4972941;28;20019;-72
2022/07/05 14:18:45;;;;;;;5.38;2.38;;;;;;;;;;4972802;28;20539;-71
2022/07/05 14:21:14;;;;;;;5.38;2.20;;;;;;;;;;4972676;28;20019;-72
2022/07/05 14:23:47;;;;;;;5.60;2.00;;;;;;;;;;4972149;28;20039;-72
2022/07/05 14:26:14;;;;;;;5.30;2.22;;;;;;;;;;4972210;28;20039;-72
2022/07/05 14:28:40;;;;;;;7.65;2.17;;;;;;;;;;4972274;28;20039;-72
2022/07/05 14:31:06;;;;;;;5.95;2.20;;;;;;;;;;4972533;28;20248;-72
2022/07/05 14:33:32;;;;;;;4.25;2.20;;;;;;;;;;4972496;28;20029;-72
2022/07/05 14:35:58;;;;;;;3.88;2.30;;;;;;;;;;4962856;28;20035;-72
2022/07/05 14:38:24;;;;;;;3.35;2.20;;;;;;;;;;4971877;28;20085;-71
2022/07/05 14:40:49;;;;;;;4.95;2.10;;;;;;;;;;4972325;28;20037;-72
2022/07/05 14:43:15;;;;;;;2.80;2.00;;;;;;;;;;4965593;28;20098;-72
2022/07/05 14:45:41;;;;;;;4.70;2.08;;;;;;;;;;4972570;28;20031;-72
2022/07/05 14:48:07;;;;;;;3.95;1.95;;;;;;;;;;4972409;28;20042;-73
2022/07/05 14:50:33;;;;;;;3.72;2.20;;;;;;;;;;4971953;28;20046;-74
2022/07/05 14:53:05;;;;;;;6.10;2.30;;;;;;;;;;4971936;28;20021;-73
2022/07/05 14:55:32;;;;;;;5.50;2.47;;;;;;;;;;4975872;28;20105;-72
2022/07/05 14:57:58;;;;;;;3.38;2.15;;;;;;;;;;4970442;28;20043;-71
2022/07/05 15:00:24;;;;;;;4.80;2.25;;;;;;;;;;4967430;28;20039;-71